createdAt,value
2023-02-19T00:01:56.467Z,15.56
2023-02-19T00:04:25.040Z,15.53
2023-02-19T00:06:52.961Z,15.49
2023-02-19T00:09:21.653Z,15.50
2023-02-19T00:11:50.446Z,15.39
2023-02-19T00:14:20.713Z,15.48
2023-02-19T00:16:49.641Z,15.46
2023-02-19T00:19:21.096Z,15.51
2023-02-19T00:21:51.499Z,15.39
2023-02-19T00:24:22.848Z,15.54
2023-02-19T00:26:51.185Z,15.29
2023-02-19T00:29:21.984Z,15.13
2023-02-19T00:31:50.760Z,15.27
2023-02-19T00:34:20.204Z,15.12
2023-02-19T00:36:48.596Z,15.12
2023-02-19T00:39:18.612Z,15.29
2023-02-19T00:41:47.008Z,14.98
2023-02-19T00:44:15.886Z,15.04
2023-02-19T00:46:46.115Z,15.23
2023-02-19T00:49:18.539Z,15.27
2023-02-19T00:51:48.523Z,15.21
2023-02-19T00:54:17.383Z,15.24
2023-02-19T00:56:45.582Z,15.38
2023-02-19T00:59:14.101Z,15.41
2023-02-19T01:01:42.687Z,15.41
2023-02-19T01:04:12.798Z,15.36
2023-02-19T01:06:42.065Z,15.39
2023-02-19T01:09:11.492Z,15.36
2023-02-19T01:11:40.176Z,15.39
2023-02-19T01:14:08.463Z,15.28
2023-02-19T01:16:36.503Z,15.28
2023-02-19T01:19:04.729Z,15.26
2023-02-19T01:21:33.024Z,15.26
2023-02-19T01:24:01.049Z,15.27
2023-02-19T01:26:32.317Z,15.14
2023-02-19T01:29:00.761Z,15.21
2023-02-19T01:31:30.025Z,15.19
2023-02-19T01:34:00.121Z,15.11
2023-02-19T01:36:29.332Z,15.07
2023-02-19T01:38:57.512Z,15.08
2023-02-19T01:41:26.640Z,15.01
2023-02-19T01:44:00.728Z,15.12
2023-02-19T01:46:30.194Z,15.16
2023-02-19T01:49:01.870Z,15.20
2023-02-19T01:51:32.065Z,15.25
2023-02-19T01:54:03.579Z,15.30
2023-02-19T01:56:34.197Z,15.33
2023-02-19T01:59:04.002Z,15.34
2023-02-19T02:01:32.715Z,15.35
2023-02-19T02:04:01.778Z,15.35
2023-02-19T02:06:34.175Z,15.35
2023-02-19T02:09:20.672Z,15.31
2023-02-19T02:11:51.312Z,15.31
2023-02-19T02:14:25.990Z,15.29
2023-02-19T02:16:59.454Z,15.33
2023-02-19T02:19:57.806Z,15.33
2023-02-19T02:22:30.397Z,15.39
2023-02-19T02:25:44.817Z,15.35
2023-02-19T02:28:27.150Z,15.33
2023-02-19T02:30:59.408Z,15.32
2023-02-19T02:33:34.142Z,15.32
2023-02-19T02:36:08.761Z,15.32
2023-02-19T02:38:41.157Z,15.32
2023-02-19T02:41:10.392Z,15.32
2023-02-19T02:43:39.017Z,15.31
2023-02-19T02:46:12.243Z,15.27
2023-02-19T02:48:44.810Z,15.30
2023-02-19T02:51:21.180Z,15.30
2023-02-19T02:54:14.245Z,15.23
2023-02-19T02:56:43.955Z,15.22
2023-02-19T02:59:14.685Z,15.13
2023-02-19T03:02:04.158Z,15.16
2023-02-19T03:04:58.109Z,15.17
2023-02-19T03:07:29.845Z,15.18
2023-02-19T03:10:01.107Z,15.19
2023-02-19T03:12:49.838Z,15.20
2023-02-19T03:15:38.185Z,15.23
2023-02-19T03:18:28.063Z,15.21
2023-02-19T03:20:59.016Z,15.13
2023-02-19T03:23:45.202Z,15.09
2023-02-19T03:26:15.750Z,15.15
2023-02-19T03:29:04.282Z,15.18
2023-02-19T03:31:34.353Z,15.15
2023-02-19T03:34:06.382Z,15.16
2023-02-19T03:36:39.069Z,15.16
2023-02-19T03:39:09.664Z,15.13
2023-02-19T03:41:50.257Z,15.11
2023-02-19T03:44:26.392Z,15.15
2023-02-19T03:47:03.435Z,15.17
2023-02-19T03:49:40.962Z,15.14
2023-02-19T03:52:17.548Z,15.20
2023-02-19T03:54:52.080Z,15.22
2023-02-19T03:57:24.446Z,15.19
2023-02-19T04:00:00.312Z,15.13
2023-02-19T04:02:34.562Z,15.12
2023-02-19T04:05:12.586Z,15.13
2023-02-19T04:07:46.259Z,15.07
2023-02-19T04:10:16.186Z,14.88
2023-02-19T04:12:49.766Z,14.86
2023-02-19T04:15:22.526Z,14.90
2023-02-19T04:17:56.024Z,14.80
2023-02-19T04:20:30.763Z,14.75
2023-02-19T04:22:59.251Z,14.90
2023-02-19T04:25:29.898Z,14.80
2023-02-19T04:27:59.014Z,14.81
2023-02-19T04:30:27.611Z,14.83
2023-02-19T04:32:55.667Z,14.94
2023-02-19T04:35:23.770Z,14.88
2023-02-19T04:37:53.646Z,14.96
2023-02-19T04:40:21.676Z,14.87
2023-02-19T04:42:49.607Z,14.95
2023-02-19T04:45:18.216Z,14.95
2023-02-19T04:47:46.146Z,14.94
2023-02-19T04:50:14.431Z,14.97
2023-02-19T04:52:42.738Z,14.92
2023-02-19T04:55:12.080Z,14.89
2023-02-19T04:57:40.165Z,14.88
2023-02-19T05:00:10.218Z,14.88
2023-02-19T05:02:38.286Z,14.94
2023-02-19T05:05:06.824Z,14.91
2023-02-19T05:07:35.214Z,15.02
2023-02-19T05:10:03.369Z,14.95
2023-02-19T05:12:32.976Z,15.01
2023-02-19T05:15:01.292Z,15.04
2023-02-19T05:17:29.350Z,15.07
2023-02-19T05:19:57.386Z,15.07
2023-02-19T05:22:25.733Z,15.10
2023-02-19T05:24:53.742Z,15.14
2023-02-19T05:27:21.761Z,15.12
2023-02-19T05:29:51.426Z,15.15
2023-02-19T05:32:19.420Z,15.13
2023-02-19T05:34:47.402Z,15.15
2023-02-19T05:37:16.404Z,15.07
2023-02-19T05:39:44.587Z,15.04
2023-02-19T05:42:14.736Z,15.11
2023-02-19T05:44:43.511Z,15.07
2023-02-19T05:47:13.240Z,15.06
2023-02-19T05:49:41.190Z,15.00
2023-02-19T05:52:09.541Z,15.07
2023-02-19T05:54:37.526Z,14.73
2023-02-19T05:57:05.599Z,14.66
2023-02-19T05:59:34.005Z,14.70
2023-02-19T06:02:02.070Z,14.18
2023-02-19T06:04:31.988Z,13.84
2023-02-19T06:07:00.118Z,13.77
2023-02-19T06:09:28.294Z,13.46
2023-02-19T06:11:57.135Z,13.53
2023-02-19T06:14:25.323Z,12.98
2023-02-19T06:16:53.304Z,12.70
2023-02-19T06:19:21.702Z,12.69
2023-02-19T06:21:52.240Z,12.70
2023-02-19T06:24:20.275Z,12.81
2023-02-19T06:26:48.514Z,12.74
2023-02-19T06:29:17.620Z,12.59
2023-02-19T06:31:46.386Z,12.31
2023-02-19T06:34:14.715Z,12.20
2023-02-19T06:36:42.727Z,12.27
2023-02-19T06:39:12.032Z,12.09
2023-02-19T06:41:40.304Z,11.97
2023-02-19T06:44:08.413Z,11.66
2023-02-19T06:46:36.664Z,11.91
2023-02-19T06:49:06.085Z,11.82
2023-02-19T06:51:34.907Z,11.61
2023-02-19T06:54:03.279Z,11.40
2023-02-19T06:56:34.320Z,11.31
2023-02-19T06:59:04.733Z,11.29
2023-02-19T07:01:35.080Z,11.54
2023-02-19T07:04:03.904Z,11.39
2023-02-19T07:06:32.941Z,11.10
2023-02-19T07:09:01.298Z,11.46
2023-02-19T07:11:31.664Z,11.61
2023-02-19T07:14:03.414Z,11.61
2023-02-19T07:16:31.992Z,11.66
2023-02-19T07:19:01.426Z,11.50
2023-02-19T07:21:30.307Z,11.41
2023-02-19T07:23:58.999Z,11.57
2023-02-19T07:26:27.394Z,11.48
2023-02-19T07:28:55.665Z,11.36
2023-02-19T07:31:25.482Z,11.57
2023-02-19T07:33:53.881Z,11.57
2023-02-19T07:36:23.388Z,11.55
2023-02-19T07:38:55.896Z,11.74
2023-02-19T07:41:25.150Z,11.72
2023-02-19T07:43:54.470Z,11.87
2023-02-19T07:46:23.176Z,11.83
2023-02-19T07:48:52.781Z,11.70
2023-02-19T07:51:21.529Z,11.85
2023-02-19T07:53:51.238Z,11.60
2023-02-19T07:56:20.604Z,11.18
2023-02-19T07:58:48.582Z,11.47
2023-02-19T08:01:18.720Z,11.44
2023-02-19T08:03:46.772Z,11.15
2023-02-19T08:06:17.662Z,10.94
2023-02-19T08:08:45.787Z,10.69
2023-02-19T08:11:31.513Z,10.58
2023-02-19T08:13:59.449Z,10.80
2023-02-19T08:16:41.979Z,10.59
2023-02-19T08:19:11.252Z,10.64
2023-02-19T08:21:41.018Z,10.74
2023-02-19T08:24:09.241Z,10.91
2023-02-19T08:26:37.982Z,10.88
2023-02-19T08:29:07.227Z,11.06
2023-02-19T08:31:36.581Z,10.86
2023-02-19T08:34:08.561Z,10.96
2023-02-19T08:36:42.674Z,11.03
2023-02-19T08:39:10.704Z,11.21
2023-02-19T08:41:38.833Z,11.47
2023-02-19T08:44:07.390Z,11.45
2023-02-19T08:46:36.002Z,11.30
2023-02-19T08:49:04.221Z,11.56
2023-02-19T08:51:32.618Z,11.35
2023-02-19T08:54:03.531Z,11.37
2023-02-19T08:56:32.302Z,11.49
2023-02-19T08:59:00.567Z,11.57
2023-02-19T09:01:28.771Z,11.51
2023-02-19T09:03:57.192Z,11.70
2023-02-19T09:06:25.171Z,11.74
2023-02-19T09:08:53.803Z,11.74
2023-02-19T09:11:23.721Z,11.74
2023-02-19T09:13:51.848Z,11.99
2023-02-19T09:16:19.832Z,12.05
2023-02-19T09:18:48.220Z,12.03
2023-02-19T09:21:16.212Z,11.97
2023-02-19T09:23:44.179Z,11.83
2023-02-19T09:26:14.137Z,12.02
2023-02-19T09:28:43.537Z,12.21
2023-02-19T09:31:14.005Z,12.28
2023-02-19T09:33:47.258Z,12.31
2023-02-19T09:36:16.301Z,12.25
2023-02-19T09:38:44.572Z,12.51
2023-02-19T09:41:17.893Z,12.54
2023-02-19T09:43:47.617Z,12.68
2023-02-19T09:46:25.006Z,12.52
2023-02-19T09:48:56.354Z,12.35
2023-02-19T09:51:28.955Z,12.71
2023-02-19T09:53:58.989Z,12.35
2023-02-19T09:56:28.630Z,12.63
2023-02-19T09:59:00.534Z,13.03
2023-02-19T10:01:33.773Z,12.98
2023-02-19T10:04:02.075Z,12.88
2023-02-19T10:06:30.493Z,12.75
2023-02-19T10:09:14.736Z,12.80
2023-02-19T10:11:43.148Z,13.04
2023-02-19T10:14:18.497Z,13.29
2023-02-19T10:16:49.217Z,12.86
2023-02-19T10:19:18.032Z,12.92
2023-02-19T10:21:47.317Z,13.04
2023-02-19T10:24:21.434Z,13.12
2023-02-19T10:26:51.351Z,13.27
2023-02-19T10:29:21.946Z,13.08
2023-02-19T10:31:52.147Z,13.18
2023-02-19T10:34:22.333Z,13.26
2023-02-19T10:36:53.525Z,13.25
2023-02-19T10:39:39.745Z,12.94
2023-02-19T10:42:19.194Z,13.12
2023-02-19T10:44:52.555Z,13.23
2023-02-19T10:47:24.905Z,13.42
2023-02-19T10:49:54.277Z,12.96
2023-02-19T10:52:26.635Z,13.19
2023-02-19T10:54:58.915Z,13.27
2023-02-19T10:57:35.189Z,13.18
2023-02-19T11:00:22.754Z,13.39
2023-02-19T11:02:51.788Z,13.10
2023-02-19T11:05:21.141Z,13.42
2023-02-19T11:07:51.671Z,13.65
2023-02-19T11:10:28.791Z,13.64
2023-02-19T11:12:59.838Z,14.14
2023-02-19T11:15:31.968Z,14.35
2023-02-19T11:18:03.345Z,14.38
2023-02-19T11:20:31.985Z,14.03
2023-02-19T11:23:15.313Z,14.44
2023-02-19T11:25:47.772Z,14.27
2023-02-19T11:28:33.047Z,14.23
2023-02-19T11:31:22.960Z,14.37
2023-02-19T11:33:56.137Z,14.02
2023-02-19T11:36:33.414Z,14.13
2023-02-19T11:39:21.478Z,14.22
2023-02-19T11:42:11.913Z,13.94
2023-02-19T11:44:52.381Z,13.98
2023-02-19T11:47:51.135Z,13.87
2023-02-19T11:50:26.081Z,13.77
2023-02-19T11:53:11.562Z,13.63
2023-02-19T11:55:52.370Z,13.27
2023-02-19T11:58:51.416Z,13.84
2023-02-19T12:01:26.137Z,13.75
2023-02-19T12:04:40.067Z,13.60
2023-02-19T12:07:21.216Z,13.94
2023-02-19T12:10:03.773Z,14.33
2023-02-19T12:12:42.787Z,14.27
2023-02-19T12:15:32.530Z,13.96
2023-02-19T12:18:26.439Z,14.38
2023-02-19T12:21:11.082Z,14.15
2023-02-19T12:24:01.676Z,14.52
2023-02-19T12:26:33.487Z,14.34
2023-02-19T12:29:36.096Z,14.33
2023-02-19T12:32:26.361Z,14.05
2023-02-19T12:35:21.041Z,14.10
2023-02-19T12:38:00.511Z,14.06
2023-02-19T12:40:39.829Z,14.44
2023-02-19T12:43:15.297Z,14.23
2023-02-19T12:45:48.138Z,14.55
2023-02-19T12:48:30.818Z,14.69
2023-02-19T12:51:05.413Z,14.74
2023-02-19T12:53:43.088Z,14.22
2023-02-19T12:56:18.079Z,14.05
2023-02-19T12:58:49.820Z,13.81
2023-02-19T13:01:24.141Z,13.91
2023-02-19T13:04:13.959Z,14.52
2023-02-19T13:06:46.165Z,14.57
2023-02-19T13:09:22.091Z,14.41
2023-02-19T13:11:54.380Z,14.54
2023-02-19T13:14:29.199Z,14.81
2023-02-19T13:17:02.355Z,14.88
2023-02-19T13:19:32.146Z,15.05
2023-02-19T13:22:27.830Z,14.57
2023-02-19T13:24:58.368Z,14.13
2023-02-19T13:30:34.633Z,14.36
2023-02-19T13:33:19.231Z,14.44
2023-02-19T13:36:08.165Z,14.30
2023-02-19T13:38:40.504Z,14.28
2023-02-19T13:41:19.848Z,14.23
2023-02-19T13:43:56.502Z,14.11
2023-02-19T13:46:26.303Z,14.77
2023-02-19T13:49:25.624Z,14.61
2023-02-19T13:51:55.877Z,14.75
2023-02-19T13:54:29.392Z,14.82
2023-02-19T13:57:26.214Z,14.52
2023-02-19T13:59:55.393Z,14.35
2023-02-19T14:02:31.306Z,14.21
2023-02-19T14:05:02.616Z,13.67
2023-02-19T14:07:51.481Z,13.51
2023-02-19T14:10:58.051Z,13.73
2023-02-19T14:14:06.635Z,13.63
2023-02-19T14:16:55.780Z,14.14
2023-02-19T14:19:47.155Z,14.14
2023-02-19T14:23:04.774Z,14.23
2023-02-19T14:25:46.476Z,14.18
2023-02-19T14:28:20.081Z,14.21
2023-02-19T14:30:52.055Z,14.21
2023-02-19T14:33:24.450Z,14.17
2023-02-19T14:35:57.666Z,14.32
2023-02-19T14:38:29.576Z,14.29
2023-02-19T14:40:58.577Z,14.49
2023-02-19T14:43:28.656Z,14.19
2023-02-19T14:46:01.834Z,14.26
2023-02-19T14:48:34.224Z,14.20
2023-02-19T14:51:06.002Z,14.52
2023-02-19T14:53:39.915Z,14.29
2023-02-19T14:56:17.416Z,14.11
2023-02-19T14:58:46.092Z,13.90
2023-02-19T15:01:28.515Z,14.01
2023-02-19T15:03:57.286Z,13.90
2023-02-19T15:06:27.380Z,14.04
2023-02-19T15:09:00.637Z,14.17
2023-02-19T15:11:31.977Z,14.18
2023-02-19T15:14:03.006Z,14.23
2023-02-19T15:16:36.239Z,14.08
2023-02-19T15:19:07.280Z,14.06
2023-02-19T15:21:39.909Z,14.07
2023-02-19T15:24:08.445Z,13.99
2023-02-19T15:26:40.993Z,13.79
2023-02-19T15:29:12.045Z,13.74
2023-02-19T15:31:47.435Z,12.84
2023-02-19T15:34:18.564Z,12.96
2023-02-19T15:36:47.662Z,13.03
2023-02-19T15:39:22.265Z,12.87
2023-02-19T15:42:00.112Z,12.50
2023-02-19T15:44:50.323Z,12.64
2023-02-19T15:47:29.625Z,12.59
2023-02-19T15:50:02.445Z,12.59
2023-02-19T15:52:38.010Z,12.66
2023-02-19T15:55:19.837Z,12.52
2023-02-19T15:57:54.821Z,12.09
2023-02-19T16:00:32.268Z,12.41
2023-02-19T16:03:02.761Z,12.13
2023-02-19T16:05:31.700Z,12.20
2023-02-19T16:08:08.209Z,12.14
2023-02-19T16:10:36.623Z,11.83
2023-02-19T16:13:07.190Z,12.07
2023-02-19T16:15:35.836Z,11.98
2023-02-19T16:18:05.862Z,12.08
2023-02-19T16:20:36.931Z,12.09
2023-02-19T16:23:10.871Z,11.86
2023-02-19T16:25:42.257Z,11.87
2023-02-19T16:28:12.675Z,11.85
2023-02-19T16:30:41.419Z,11.82
2023-02-19T16:33:36.165Z,11.69
2023-02-19T16:36:26.437Z,11.69
2023-02-19T16:39:04.672Z,11.63
2023-02-19T16:41:32.963Z,11.71
2023-02-19T16:44:06.453Z,11.68
2023-02-19T16:46:34.913Z,11.43
2023-02-19T16:49:04.246Z,11.52
2023-02-19T16:51:32.302Z,11.46
2023-02-19T16:54:00.517Z,11.25
2023-02-19T16:56:28.703Z,11.22
2023-02-19T16:58:56.724Z,11.24
2023-02-19T17:01:25.544Z,11.20
2023-02-19T17:03:59.436Z,11.15
2023-02-19T17:06:29.546Z,11.07
2023-02-19T17:08:57.677Z,10.93
2023-02-19T17:11:26.020Z,10.82
2023-02-19T17:13:54.505Z,10.73
2023-02-19T17:16:27.268Z,10.64
2023-02-19T17:18:56.520Z,10.52
2023-02-19T17:21:27.056Z,10.42
2023-02-19T17:23:57.539Z,10.31
2023-02-19T17:26:28.058Z,10.23
2023-02-19T17:28:57.543Z,10.15
2023-02-19T17:31:25.668Z,10.15
2023-02-19T17:33:53.914Z,10.10
2023-02-19T17:36:23.763Z,10.07
2023-02-19T17:38:51.768Z,10.03
2023-02-19T17:41:21.273Z,10.03
2023-02-19T17:43:50.404Z,9.98
2023-02-19T17:46:19.404Z,9.93
2023-02-19T17:48:47.432Z,9.90
2023-02-19T17:51:16.033Z,9.87
2023-02-19T17:53:46.576Z,9.82
2023-02-19T17:56:19.083Z,9.74
2023-02-19T17:58:48.959Z,9.64
2023-02-19T18:01:17.050Z,9.58
2023-02-19T18:03:45.651Z,9.56
2023-02-19T18:06:14.092Z,9.52
2023-02-19T18:08:48.322Z,9.45
2023-02-19T18:11:16.773Z,9.45
2023-02-19T18:13:44.976Z,9.43
2023-02-19T18:16:15.681Z,9.41
2023-02-19T18:18:44.651Z,9.37
2023-02-19T18:21:14.237Z,9.40
2023-02-19T18:23:43.275Z,9.45
2023-02-19T18:26:13.769Z,9.50
2023-02-19T18:28:41.888Z,9.55
2023-02-19T18:31:10.178Z,9.55
2023-02-19T18:33:40.150Z,9.54
2023-02-19T18:36:11.631Z,9.50
2023-02-19T18:38:40.404Z,9.45
2023-02-19T18:41:12.750Z,9.39
2023-02-19T18:43:41.947Z,9.38
2023-02-19T18:46:10.630Z,9.35
2023-02-19T18:48:40.259Z,9.35
2023-02-19T18:51:11.753Z,9.33
2023-02-19T18:53:40.118Z,9.31
2023-02-19T18:56:09.115Z,9.29
2023-02-19T18:58:37.210Z,9.24
2023-02-19T19:01:05.590Z,9.24
2023-02-19T19:03:33.972Z,9.25
2023-02-19T19:06:03.280Z,9.23
2023-02-19T19:08:31.359Z,9.18
2023-02-19T19:10:59.549Z,9.15
2023-02-19T19:13:27.552Z,9.09
2023-02-19T19:15:55.706Z,9.04
2023-02-19T19:18:25.069Z,8.98
2023-02-19T19:20:56.303Z,8.91
2023-02-19T19:23:26.064Z,8.88
2023-02-19T19:25:54.689Z,8.82
2023-02-19T19:28:23.126Z,8.78
2023-02-19T19:30:51.563Z,8.71
2023-02-19T19:33:20.349Z,8.69
2023-02-19T19:35:48.370Z,8.68
2023-02-19T19:38:16.679Z,8.67
2023-02-19T19:40:46.120Z,8.63
2023-02-19T19:43:14.264Z,8.56
2023-02-19T19:45:42.623Z,8.59
2023-02-19T19:48:10.581Z,8.62
2023-02-19T19:50:38.631Z,8.67
2023-02-19T19:53:06.939Z,8.68
2023-02-19T19:55:34.942Z,8.70
2023-02-19T19:58:04.671Z,8.69
2023-02-19T20:00:33.121Z,8.66
2023-02-19T20:03:01.565Z,8.62
2023-02-19T20:05:29.688Z,8.62
2023-02-19T20:07:57.871Z,8.61
2023-02-19T20:10:26.160Z,8.60
2023-02-19T20:12:54.334Z,8.58
2023-02-19T20:15:24.493Z,8.54
2023-02-19T20:17:52.784Z,8.50
2023-02-19T20:20:22.680Z,8.46
2023-02-19T20:22:51.773Z,8.43
2023-02-19T20:25:20.276Z,8.40
2023-02-19T20:27:48.991Z,8.40
2023-02-19T20:30:19.895Z,8.39
2023-02-19T20:32:50.508Z,8.38
2023-02-19T20:35:19.153Z,8.34
2023-02-19T20:37:49.428Z,8.32
2023-02-19T20:40:19.036Z,8.32
2023-02-19T20:42:47.051Z,8.30
2023-02-19T20:45:16.699Z,8.25
2023-02-19T20:47:45.011Z,8.21
2023-02-19T20:50:16.883Z,8.19
2023-02-19T20:52:46.191Z,8.17
2023-02-19T20:55:14.280Z,8.11
2023-02-19T20:57:42.335Z,8.01
2023-02-19T21:00:11.378Z,7.95
2023-02-19T21:02:39.585Z,7.87
2023-02-19T21:05:08.703Z,7.82
2023-02-19T21:07:38.373Z,7.81
2023-02-19T21:10:07.106Z,7.83
2023-02-19T21:12:35.183Z,7.88
2023-02-19T21:15:04.467Z,7.90
2023-02-19T21:17:32.586Z,8.00
2023-02-19T21:20:00.560Z,8.13
2023-02-19T21:22:28.732Z,8.17
2023-02-19T21:24:58.068Z,8.25
2023-02-19T21:27:26.139Z,8.35
2023-02-19T21:29:54.435Z,8.42
2023-02-19T21:32:22.567Z,8.51
2023-02-19T21:34:50.563Z,8.57
2023-02-19T21:37:18.884Z,8.63
2023-02-19T21:39:47.063Z,8.71
2023-02-19T21:42:16.407Z,8.80
2023-02-19T21:44:44.682Z,8.87
2023-02-19T21:47:13.066Z,8.88
2023-02-19T21:49:41.851Z,8.81
2023-02-19T21:52:10.434Z,8.93
2023-02-19T21:54:38.466Z,8.96
2023-02-19T21:57:06.539Z,9.02
2023-02-19T21:59:36.129Z,9.08
2023-02-19T22:02:04.316Z,9.13
2023-02-19T22:04:32.588Z,9.16
2023-02-19T22:07:00.584Z,9.20
2023-02-19T22:09:28.555Z,9.23
2023-02-19T22:11:56.945Z,9.24
2023-02-19T22:14:24.927Z,9.26
2023-02-19T22:16:54.281Z,9.28
2023-02-19T22:19:22.567Z,9.29
2023-02-19T22:21:50.538Z,9.32
2023-02-19T22:24:20.770Z,9.35
2023-02-19T22:26:50.675Z,9.39
2023-02-19T22:29:19.080Z,9.42
2023-02-19T22:31:47.202Z,9.45
2023-02-19T22:34:17.620Z,9.49
2023-02-19T22:36:45.786Z,9.55
2023-02-19T22:39:18.573Z,9.60
2023-02-19T22:41:47.254Z,9.67
2023-02-19T22:44:15.356Z,9.74
2023-02-19T22:46:48.253Z,9.78
2023-02-19T22:49:18.583Z,9.83
2023-02-19T22:51:52.949Z,9.87
2023-02-19T22:54:25.019Z,9.88
2023-02-19T22:56:53.771Z,9.90
2023-02-19T22:59:22.608Z,9.88
2023-02-19T23:01:51.291Z,9.89
2023-02-19T23:04:23.436Z,9.93
2023-02-19T23:06:52.699Z,9.91
2023-02-19T23:09:23.939Z,9.93
2023-02-19T23:11:53.165Z,9.97
2023-02-19T23:14:24.359Z,9.96
2023-02-19T23:16:52.888Z,9.99
2023-02-19T23:19:22.345Z,9.98
2023-02-19T23:21:50.990Z,9.99
2023-02-19T23:24:19.626Z,10.01
2023-02-19T23:26:49.177Z,10.00
2023-02-19T23:29:18.665Z,10.06
2023-02-19T23:31:47.721Z,10.11
2023-02-19T23:34:15.913Z,10.10
2023-02-19T23:36:47.000Z,10.13
2023-02-19T23:39:17.953Z,10.19
2023-02-19T23:41:50.640Z,10.22
2023-02-19T23:44:19.936Z,10.25
2023-02-19T23:46:49.657Z,10.27
2023-02-19T23:49:18.559Z,10.32
2023-02-19T23:51:48.414Z,10.33
2023-02-19T23:54:16.724Z,10.36
2023-02-19T23:56:44.928Z,10.42
2023-02-19T23:59:13.320Z,10.41
